Time;durP1;ratioP1;P1;durP2;ratioP2;P2;SDS_P1;SDS_P2;PMS_P1;PMS_P2;Temp;Humidity;BMP_temperature;BMP_pressure;BME280_temperature;BME280_humidity;BME280_pressure;Samples;Min_cycle;Max_cycle;Signal;HPM_P1;HPM_P2
2023/12/07 00:00:39;;;;;;;12.57;7.88;;;;;;;;;;5014761;28;20136;-59
2023/12/07 00:03:08;;;;;;;12.18;7.68;;;;;;;;;;5017643;28;20044;-59
2023/12/07 00:05:34;;;;;;;11.20;8.20;;;;;;;;;;5017180;28;20071;-59
2023/12/07 00:08:00;;;;;;;12.38;7.78;;;;;;;;;;5017379;28;20556;-59
2023/12/07 00:10:26;;;;;;;10.65;7.47;;;;;;;;;;5017418;28;20140;-59
2023/12/07 00:12:52;;;;;;;11.68;7.80;;;;;;;;;;5016547;28;20094;-59
2023/12/07 00:15:18;;;;;;;12.18;7.97;;;;;;;;;;5017105;28;20056;-58
2023/12/07 00:17:44;;;;;;;12.00;7.63;;;;;;;;;;5013172;28;20045;-59
2023/12/07 00:20:11;;;;;;;12.07;7.75;;;;;;;;;;5016805;28;20670;-59
2023/12/07 00:22:37;;;;;;;11.70;7.65;;;;;;;;;;5015409;28;20037;-58
2023/12/07 00:25:03;;;;;;;13.48;8.70;;;;;;;;;;5014014;28;20071;-58
2023/12/07 00:27:29;;;;;;;14.38;8.23;;;;;;;;;;5017245;28;21871;-59
2023/12/07 00:29:55;;;;;;;11.50;7.80;;;;;;;;;;5013617;28;20515;-58
2023/12/07 00:32:21;;;;;;;10.75;7.88;;;;;;;;;;5011487;28;20037;-58
2023/12/07 00:34:48;;;;;;;12.57;8.43;;;;;;;;;;5012668;28;20040;-59
2023/12/07 00:37:15;;;;;;;11.65;7.97;;;;;;;;;;5018158;28;20396;-58
2023/12/07 00:39:41;;;;;;;11.98;8.25;;;;;;;;;;5018922;28;20041;-58
2023/12/07 00:42:07;;;;;;;10.32;7.65;;;;;;;;;;5017550;28;20075;-59
2023/12/07 00:44:33;;;;;;;11.40;7.28;;;;;;;;;;5015476;28;20057;-59
2023/12/07 00:47:00;;;;;;;11.95;7.50;;;;;;;;;;5013821;28;20037;-58
2023/12/07 00:49:26;;;;;;;11.05;7.25;;;;;;;;;;5010817;28;20037;-59
2023/12/07 00:51:52;;;;;;;12.93;7.75;;;;;;;;;;5011869;28;20045;-58
2023/12/07 00:54:18;;;;;;;12.63;8.00;;;;;;;;;;5011143;28;20048;-59
2023/12/07 00:56:44;;;;;;;12.88;8.05;;;;;;;;;;5015255;28;20040;-59
2023/12/07 00:59:10;;;;;;;9.25;6.97;;;;;;;;;;5017830;28;20037;-59
2023/12/07 01:01:38;;;;;;;11.75;7.45;;;;;;;;;;5014275;28;20117;-59
2023/12/07 01:04:05;;;;;;;11.32;7.85;;;;;;;;;;5012566;28;20063;-58
2023/12/07 01:06:31;;;;;;;11.98;6.93;;;;;;;;;;5010701;28;20112;-59
2023/12/07 01:08:57;;;;;;;11.20;7.55;;;;;;;;;;5011216;28;20048;-58
2023/12/07 01:11:23;;;;;;;9.95;7.15;;;;;;;;;;5011654;28;20400;-59
2023/12/07 01:13:49;;;;;;;10.50;6.75;;;;;;;;;;5013756;28;20025;-58
2023/12/07 01:16:15;;;;;;;10.40;7.22;;;;;;;;;;5018850;28;20659;-58
2023/12/07 01:18:41;;;;;;;11.25;6.15;;;;;;;;;;5013184;28;20033;-59
2023/12/07 01:21:08;;;;;;;11.23;6.93;;;;;;;;;;5015699;28;20033;-59
2023/12/07 01:23:34;;;;;;;10.95;6.57;;;;;;;;;;5015274;28;20040;-59
2023/12/07 01:26:02;;;;;;;11.95;7.55;;;;;;;;;;5015705;28;20692;-58
2023/12/07 01:28:28;;;;;;;10.30;6.82;;;;;;;;;;5018298;28;20047;-58
2023/12/07 01:30:54;;;;;;;9.85;6.68;;;;;;;;;;5015058;28;20547;-58
2023/12/07 01:33:21;;;;;;;10.30;6.82;;;;;;;;;;5013951;28;21781;-58
2023/12/07 01:35:47;;;;;;;11.00;6.93;;;;;;;;;;5015359;28;20034;-59
2023/12/07 01:38:13;;;;;;;9.88;6.57;;;;;;;;;;5013223;28;20037;-59
2023/12/07 01:40:39;;;;;;;10.65;7.07;;;;;;;;;;5014908;28;20472;-58
2023/12/07 01:43:05;;;;;;;12.18;7.57;;;;;;;;;;5018777;28;20050;-59
2023/12/07 01:45:32;;;;;;;10.90;7.05;;;;;;;;;;5020890;28;20037;-59
2023/12/07 01:47:59;;;;;;;11.68;7.18;;;;;;;;;;5018987;28;21678;-58
2023/12/07 01:50:26;;;;;;;9.82;6.43;;;;;;;;;;5015302;28;21059;-59
2023/12/07 01:52:57;;;;;;;11.73;7.60;;;;;;;;;;5015080;28;20029;-59
2023/12/07 01:55:24;;;;;;;18.70;7.15;;;;;;;;;;5014064;28;20484;-59
2023/12/07 01:57:50;;;;;;;12.13;7.28;;;;;;;;;;5017719;28;20481;-58
2023/12/07 02:00:17;;;;;;;10.90;6.35;;;;;;;;;;5017410;28;20040;-58
2023/12/07 02:02:45;;;;;;;11.30;7.05;;;;;;;;;;5017786;28;20037;-58
2023/12/07 02:05:12;;;;;;;9.48;6.68;;;;;;;;;;5013975;28;20041;-58
2023/12/07 02:07:39;;;;;;;11.38;5.97;;;;;;;;;;5014559;28;21719;-59
2023/12/07 02:10:06;;;;;;;10.48;6.47;;;;;;;;;;5014029;28;20048;-59
2023/12/07 02:12:32;;;;;;;10.88;6.57;;;;;;;;;;5018359;28;20037;-58
2023/12/07 02:14:58;;;;;;;10.43;6.57;;;;;;;;;;5019128;28;20998;-59
2023/12/07 02:17:24;;;;;;;8.85;6.47;;;;;;;;;;5019272;28;20750;-59
2023/12/07 02:20:12;;;;;;;10.00;6.15;;;;;;;;;;5013449;28;20531;-59
2023/12/07 02:22:50;;;;;;;11.00;7.13;;;;;;;;;;5014603;28;22117;-58
2023/12/07 02:25:18;;;;;;;8.23;5.65;;;;;;;;;;5014477;28;20116;-59
2023/12/07 02:27:48;;;;;;;9.50;6.20;;;;;;;;;;5013599;28;20033;-58
2023/12/07 02:30:14;;;;;;;12.55;5.82;;;;;;;;;;5019834;28;20044;-59
2023/12/07 02:32:41;;;;;;;8.90;6.07;;;;;;;;;;5017067;28;20037;-58
2023/12/07 02:35:09;;;;;;;11.45;5.85;;;;;;;;;;5013432;28;20060;-58
2023/12/07 02:37:42;;;;;;;11.07;6.82;;;;;;;;;;5012510;28;20049;-58
2023/12/07 02:40:10;;;;;;;8.50;5.45;;;;;;;;;;5012439;28;20048;-58
2023/12/07 02:42:36;;;;;;;11.00;6.40;;;;;;;;;;5013993;28;20044;-59
2023/12/07 02:45:03;;;;;;;9.82;5.93;;;;;;;;;;5020474;28;20021;-58
2023/12/07 02:47:29;;;;;;;9.75;6.00;;;;;;;;;;5018978;28;20038;-58
2023/12/07 02:49:55;;;;;;;9.88;6.05;;;;;;;;;;5013654;28;20021;-58
2023/12/07 02:52:21;;;;;;;10.05;5.45;;;;;;;;;;5013270;28;20033;-59
2023/12/07 02:54:48;;;;;;;10.25;5.70;;;;;;;;;;5012328;28;20752;-58
2023/12/07 02:57:14;;;;;;;10.88;6.40;;;;;;;;;;5013882;28;20061;-58
2023/12/07 02:59:40;;;;;;;8.77;5.63;;;;;;;;;;5016714;28;20041;-58
2023/12/07 03:02:07;;;;;;;9.70;6.15;;;;;;;;;;5016412;28;20056;-58
2023/12/07 03:04:33;;;;;;;11.68;6.07;;;;;;;;;;5013598;28;20049;-58
2023/12/07 03:06:59;;;;;;;8.98;6.18;;;;;;;;;;5012681;28;20040;-58
2023/12/07 03:09:25;;;;;;;10.02;5.95;;;;;;;;;;5013311;28;20038;-59
2023/12/07 03:11:51;;;;;;;10.85;6.55;;;;;;;;;;5016405;28;20105;-59
2023/12/07 03:14:19;;;;;;;11.57;5.95;;;;;;;;;;5018260;28;20572;-58
2023/12/07 03:16:45;;;;;;;8.50;5.63;;;;;;;;;;5018808;28;20524;-58
2023/12/07 03:19:11;;;;;;;9.57;5.72;;;;;;;;;;5012724;28;20042;-59
2023/12/07 03:21:41;;;;;;;9.70;6.18;;;;;;;;;;5012447;28;21835;-58
2023/12/07 03:24:10;;;;;;;9.75;6.00;;;;;;;;;;5010400;28;20033;-58
2023/12/07 03:26:36;;;;;;;10.18;6.40;;;;;;;;;;5013016;28;20025;-58
2023/12/07 03:29:03;;;;;;;8.85;5.80;;;;;;;;;;5018291;28;20298;-58
2023/12/07 03:31:29;;;;;;;9.30;5.55;;;;;;;;;;5018492;28;20040;-58
2023/12/07 03:33:56;;;;;;;9.38;5.40;;;;;;;;;;5013564;28;20046;-59
2023/12/07 03:36:22;;;;;;;10.20;6.20;;;;;;;;;;5012436;28;20048;-58
2023/12/07 03:38:48;;;;;;;10.40;6.18;;;;;;;;;;5011548;28;20076;-59
2023/12/07 03:41:15;;;;;;;9.55;5.90;;;;;;;;;;5011618;28;20065;-58
2023/12/07 03:43:41;;;;;;;7.35;5.50;;;;;;;;;;5017903;28;20122;-58
2023/12/07 03:46:07;;;;;;;9.15;5.53;;;;;;;;;;5019263;28;20046;-58
2023/12/07 03:48:34;;;;;;;10.10;5.72;;;;;;;;;;5014322;28;20036;-58
2023/12/07 03:51:01;;;;;;;10.23;6.00;;;;;;;;;;5012368;28;20043;-58
2023/12/07 03:53:27;;;;;;;10.65;6.32;;;;;;;;;;5010619;28;20025;-59
2023/12/07 03:55:53;;;;;;;9.02;5.95;;;;;;;;;;5012101;28;20055;-58
2023/12/07 03:58:19;;;;;;;8.45;5.35;;;;;;;;;;5017755;28;20033;-58
2023/12/07 04:00:46;;;;;;;10.23;5.85;;;;;;;;;;5018049;28;20057;-58
2023/12/07 04:03:12;;;;;;;8.93;5.25;;;;;;;;;;5015001;28;21070;-58
2023/12/07 04:05:38;;;;;;;11.77;6.53;;;;;;;;;;5012356;28;20524;-58
2023/12/07 04:08:05;;;;;;;13.70;5.75;;;;;;;;;;5011626;28;20036;-59
2023/12/07 04:10:31;;;;;;;8.43;5.57;;;;;;;;;;5010776;28;20116;-58
2023/12/07 04:12:57;;;;;;;11.50;6.13;;;;;;;;;;5013576;28;20437;-58
2023/12/07 04:15:23;;;;;;;8.85;5.35;;;;;;;;;;5016902;28;20107;-59
2023/12/07 04:17:49;;;;;;;8.35;5.40;;;;;;;;;;5015390;28;20040;-58
2023/12/07 04:20:16;;;;;;;10.07;6.15;;;;;;;;;;5011585;28;20037;-58
2023/12/07 04:22:44;;;;;;;9.13;5.40;;;;;;;;;;5013456;28;20116;-58
2023/12/07 04:25:10;;;;;;;9.68;5.60;;;;;;;;;;5011986;28;21419;-58
2023/12/07 04:27:36;;;;;;;10.18;6.22;;;;;;;;;;5013262;28;20115;-58
2023/12/07 04:30:03;;;;;;;8.50;5.82;;;;;;;;;;5018343;28;20045;-58
2023/12/07 04:32:29;;;;;;;10.02;6.43;;;;;;;;;;5016566;28;20033;-58
2023/12/07 04:34:55;;;;;;;11.13;6.57;;;;;;;;;;5010435;28;20076;-58
2023/12/07 04:37:21;;;;;;;13.95;6.78;;;;;;;;;;5012298;28;20041;-59
2023/12/07 04:39:47;;;;;;;11.00;6.50;;;;;;;;;;5012216;28;20029;-58
2023/12/07 04:42:14;;;;;;;15.30;7.45;;;;;;;;;;5013811;28;20083;-59
2023/12/07 04:44:40;;;;;;;10.27;6.88;;;;;;;;;;5015595;28;20799;-58
2023/12/07 04:47:06;;;;;;;10.10;6.07;;;;;;;;;;5018679;28;20747;-59
2023/12/07 04:49:32;;;;;;;10.30;6.72;;;;;;;;;;5011810;28;20033;-58
2023/12/07 04:51:58;;;;;;;10.40;6.40;;;;;;;;;;5012170;28;20049;-59
2023/12/07 04:54:24;;;;;;;9.20;6.30;;;;;;;;;;5015452;28;20041;-58
2023/12/07 04:56:50;;;;;;;13.18;7.10;;;;;;;;;;5015519;28;20971;-58
2023/12/07 04:59:16;;;;;;;14.32;7.97;;;;;;;;;;5020636;28;20508;-58
2023/12/07 05:01:42;;;;;;;10.07;6.57;;;;;;;;;;5021317;28;20037;-59
2023/12/07 05:04:08;;;;;;;11.38;7.00;;;;;;;;;;5014730;28;20392;-59
2023/12/07 05:06:35;;;;;;;10.60;7.25;;;;;;;;;;5014378;28;20030;-58
2023/12/07 05:09:01;;;;;;;11.00;6.72;;;;;;;;;;5015703;28;20028;-58
2023/12/07 05:11:27;;;;;;;11.73;6.82;;;;;;;;;;5015513;28;20095;-58
2023/12/07 05:13:53;;;;;;;11.38;6.78;;;;;;;;;;5019741;28;20984;-58
2023/12/07 05:16:19;;;;;;;10.52;6.60;;;;;;;;;;5022495;28;21166;-58
2023/12/07 05:18:45;;;;;;;12.02;7.80;;;;;;;;;;5016374;28;20172;-58
2023/12/07 05:21:12;;;;;;;11.73;7.10;;;;;;;;;;5012939;28;20534;-59
2023/12/07 05:23:38;;;;;;;10.63;7.03;;;;;;;;;;5015781;28;20074;-58
2023/12/07 05:26:05;;;;;;;10.82;7.45;;;;;;;;;;5013467;28;20041;-58
2023/12/07 05:28:31;;;;;;;10.70;6.88;;;;;;;;;;5019584;28;20037;-58
2023/12/07 05:30:57;;;;;;;12.88;7.25;;;;;;;;;;5015181;28;20029;-58
2023/12/07 05:33:23;;;;;;;12.15;7.97;;;;;;;;;;5014571;28;20044;-58
2023/12/07 05:35:49;;;;;;;10.75;7.20;;;;;;;;;;5015064;28;20072;-58
2023/12/07 05:38:15;;;;;;;13.80;8.15;;;;;;;;;;5014766;28;20069;-59
2023/12/07 05:40:41;;;;;;;12.75;8.55;;;;;;;;;;5015275;28;20041;-58
2023/12/07 05:43:08;;;;;;;13.55;8.65;;;;;;;;;;5020844;28;20048;-58
2023/12/07 05:45:34;;;;;;;15.07;8.40;;;;;;;;;;5021066;28;20041;-59
2023/12/07 05:48:00;;;;;;;15.30;9.65;;;;;;;;;;5017739;28;20119;-59
2023/12/07 05:50:26;;;;;;;18.67;9.35;;;;;;;;;;5015341;28;20037;-58
2023/12/07 05:52:52;;;;;;;13.65;9.23;;;;;;;;;;5013937;28;20033;-59
2023/12/07 05:55:19;;;;;;;11.82;8.02;;;;;;;;;;5015562;28;20095;-58
2023/12/07 05:57:47;;;;;;;16.13;9.77;;;;;;;;;;5016132;28;20228;-58
2023/12/07 06:00:16;;;;;;;14.27;9.38;;;;;;;;;;5019372;28;20052;-59
2023/12/07 06:02:42;;;;;;;13.50;8.48;;;;;;;;;;5012992;28;20025;-58
2023/12/07 06:05:08;;;;;;;14.25;9.25;;;;;;;;;;5014255;28;20041;-58
2023/12/07 06:07:34;;;;;;;15.43;8.93;;;;;;;;;;5019687;28;20041;-59
2023/12/07 06:10:00;;;;;;;14.07;9.55;;;;;;;;;;5019919;28;20528;-58
2023/12/07 06:12:26;;;;;;;13.38;8.73;;;;;;;;;;5014814;28;20041;-59
2023/12/07 06:14:52;;;;;;;14.48;8.68;;;;;;;;;;5018255;28;20036;-58
2023/12/07 06:17:18;;;;;;;13.18;8.45;;;;;;;;;;5019255;28;20044;-58
2023/12/07 06:19:44;;;;;;;11.77;7.82;;;;;;;;;;5019535;28;20041;-58
2023/12/07 06:22:11;;;;;;;11.98;7.82;;;;;;;;;;5019020;28;20044;-59
2023/12/07 06:24:37;;;;;;;12.38;7.90;;;;;;;;;;5020445;28;20041;-58
2023/12/07 06:27:03;;;;;;;11.10;7.50;;;;;;;;;;5019307;28;20103;-58
2023/12/07 06:29:29;;;;;;;12.40;7.88;;;;;;;;;;5016730;28;20088;-58
2023/12/07 06:31:55;;;;;;;13.02;7.55;;;;;;;;;;5018204;28;20041;-58
2023/12/07 06:34:21;;;;;;;12.98;6.60;;;;;;;;;;5019772;28;20052;-59
2023/12/07 06:36:47;;;;;;;11.52;7.22;;;;;;;;;;5020318;28;20044;-59
2023/12/07 06:39:14;;;;;;;12.73;8.02;;;;;;;;;;5007720;28;20037;-58
2023/12/07 06:41:40;;;;;;;12.48;7.97;;;;;;;;;;5017382;28;20087;-59
2023/12/07 06:44:09;;;;;;;14.30;8.40;;;;;;;;;;5014381;28;20049;-58
2023/12/07 06:46:35;;;;;;;12.13;8.23;;;;;;;;;;5018528;28;20489;-58
2023/12/07 06:49:01;;;;;;;13.73;8.35;;;;;;;;;;5019302;28;20032;-58
2023/12/07 06:51:27;;;;;;;12.35;8.63;;;;;;;;;;5013508;28;20046;-59
2023/12/07 06:53:53;;;;;;;12.20;7.82;;;;;;;;;;5012703;28;20036;-59
2023/12/07 06:56:20;;;;;;;14.35;7.88;;;;;;;;;;5013965;28;20071;-58
2023/12/07 06:58:46;;;;;;;12.45;7.93;;;;;;;;;;5013312;28;20079;-59
2023/12/07 07:01:12;;;;;;;15.13;8.30;;;;;;;;;;5013406;28;20072;-59
2023/12/07 07:03:38;;;;;;;12.23;8.75;;;;;;;;;;5011549;28;20649;-58
2023/12/07 07:06:05;;;;;;;15.30;9.70;;;;;;;;;;5014127;28;20049;-58
2023/12/07 07:08:31;;;;;;;13.30;8.63;;;;;;;;;;5014863;28;20029;-58
2023/12/07 07:10:57;;;;;;;13.07;8.57;;;;;;;;;;5013248;28;20059;-58
2023/12/07 07:13:23;;;;;;;13.32;8.98;;;;;;;;;;5013197;28;20576;-58
2023/12/07 07:15:49;;;;;;;13.05;8.57;;;;;;;;;;5013985;28;20036;-58
2023/12/07 07:18:15;;;;;;;13.15;8.23;;;;;;;;;;5012694;28;20088;-58
2023/12/07 07:20:41;;;;;;;15.27;9.00;;;;;;;;;;5011121;28;20053;-58
2023/12/07 07:23:08;;;;;;;15.73;9.07;;;;;;;;;;5011965;28;20086;-58
2023/12/07 07:25:34;;;;;;;14.82;8.60;;;;;;;;;;5010094;28;20063;-59
2023/12/07 07:28:00;;;;;;;13.40;9.05;;;;;;;;;;4997972;28;20037;-59
2023/12/07 07:30:26;;;;;;;13.52;8.48;;;;;;;;;;5001414;28;20014;-58
2023/12/07 07:32:52;;;;;;;15.43;9.45;;;;;;;;;;5002757;28;20057;-58
2023/12/07 07:35:18;;;;;;;13.00;8.40;;;;;;;;;;5004176;28;20037;-58
2023/12/07 07:37:44;;;;;;;15.07;9.82;;;;;;;;;;5009016;28;20531;-58
2023/12/07 07:40:11;;;;;;;14.65;9.73;;;;;;;;;;5009184;28;20071;-59
2023/12/07 07:42:40;;;;;;;16.65;9.65;;;;;;;;;;5010460;28;20044;-58
2023/12/07 07:45:08;;;;;;;15.30;10.07;;;;;;;;;;5008105;28;20177;-58
2023/12/07 07:47:34;;;;;;;15.13;9.55;;;;;;;;;;5009506;28;20063;-59
2023/12/07 07:50:05;;;;;;;16.02;10.82;;;;;;;;;;5009962;28;20136;-59
2023/12/07 07:52:32;;;;;;;16.00;10.48;;;;;;;;;;5006991;28;20056;-58
2023/12/07 07:54:58;;;;;;;16.73;10.55;;;;;;;;;;5009509;28;20045;-58
2023/12/07 07:57:24;;;;;;;16.70;10.65;;;;;;;;;;5004428;28;20037;-58
2023/12/07 07:59:50;;;;;;;17.75;10.38;;;;;;;;;;5007600;28;20120;-58
2023/12/07 08:02:16;;;;;;;15.00;10.38;;;;;;;;;;5009338;28;20764;-58
2023/12/07 08:04:42;;;;;;;16.02;10.13;;;;;;;;;;5010094;28;21842;-58
2023/12/07 08:07:11;;;;;;;17.83;11.48;;;;;;;;;;5008970;28;21916;-58
2023/12/07 08:09:37;;;;;;;17.52;11.38;;;;;;;;;;5006895;28;20029;-58
2023/12/07 08:12:03;;;;;;;16.92;11.15;;;;;;;;;;5008895;28;20029;-58
2023/12/07 08:14:29;;;;;;;18.23;11.05;;;;;;;;;;5005155;28;20038;-58
2023/12/07 08:16:55;;;;;;;18.88;11.35;;;;;;;;;;5009615;28;20037;-58
2023/12/07 08:19:21;;;;;;;16.10;10.52;;;;;;;;;;5009064;28;20570;-58
2023/12/07 08:21:47;;;;;;;16.30;11.13;;;;;;;;;;5004797;28;20033;-58
2023/12/07 08:24:14;;;;;;;19.20;12.02;;;;;;;;;;5008114;28;20075;-58
2023/12/07 08:26:41;;;;;;;17.55;11.35;;;;;;;;;;5006099;28;20033;-58
2023/12/07 08:29:07;;;;;;;19.92;12.88;;;;;;;;;;5013399;28;20132;-58
2023/12/07 08:31:33;;;;;;;20.45;12.73;;;;;;;;;;5013452;28;20042;-58
2023/12/07 08:34:00;;;;;;;18.92;11.50;;;;;;;;;;5012942;28;20047;-58
2023/12/07 08:36:26;;;;;;;20.48;14.02;;;;;;;;;;5013437;28;20033;-59
2023/12/07 08:38:52;;;;;;;21.90;13.82;;;;;;;;;;5013102;28;20071;-58
2023/12/07 08:41:18;;;;;;;22.38;13.90;;;;;;;;;;5012630;28;20511;-58
2023/12/07 08:43:44;;;;;;;21.85;14.82;;;;;;;;;;5014203;28;20238;-58
2023/12/07 08:46:10;;;;;;;23.30;15.55;;;;;;;;;;5013756;28;20036;-58
2023/12/07 08:48:37;;;;;;;21.35;14.25;;;;;;;;;;5013109;28;20043;-58
2023/12/07 08:51:04;;;;;;;23.55;14.45;;;;;;;;;;5013000;28;21839;-58
2023/12/07 08:53:30;;;;;;;23.65;15.27;;;;;;;;;;5011931;28;20139;-58
2023/12/07 08:55:56;;;;;;;19.60;13.95;;;;;;;;;;5012450;28;20033;-59
2023/12/07 08:58:22;;;;;;;24.10;14.75;;;;;;;;;;5009394;28;20028;-58
2023/12/07 09:00:48;;;;;;;23.73;13.68;;;;;;;;;;5012669;28;20535;-58
2023/12/07 09:03:14;;;;;;;24.85;14.95;;;;;;;;;;5012632;28;20769;-59
2023/12/07 09:05:40;;;;;;;21.98;14.15;;;;;;;;;;5013147;28;20037;-58
2023/12/07 09:08:06;;;;;;;20.52;13.82;;;;;;;;;;5012370;28;20080;-59
2023/12/07 09:10:32;;;;;;;22.83;14.20;;;;;;;;;;5012328;28;20029;-58
2023/12/07 09:12:58;;;;;;;22.30;14.73;;;;;;;;;;5012293;28;20044;-58
2023/12/07 09:15:24;;;;;;;21.67;15.05;;;;;;;;;;5009247;28;20033;-58
2023/12/07 09:17:50;;;;;;;21.73;14.32;;;;;;;;;;5010520;28;21217;-58
2023/12/07 09:20:16;;;;;;;20.98;13.75;;;;;;;;;;5012846;28;20180;-58
2023/12/07 09:22:46;;;;;;;21.60;14.15;;;;;;;;;;5012964;28;20087;-58
2023/12/07 09:25:12;;;;;;;21.45;14.48;;;;;;;;;;5011701;28;20689;-59
2023/12/07 09:27:39;;;;;;;23.40;15.70;;;;;;;;;;5012782;28;20666;-58
2023/12/07 09:30:10;;;;;;;20.35;14.55;;;;;;;;;;5012292;28;20029;-58
2023/12/07 09:32:38;;;;;;;25.42;17.10;;;;;;;;;;5011892;28;20033;-59
2023/12/07 09:35:07;;;;;;;22.17;16.00;;;;;;;;;;5012736;28;20260;-58
2023/12/07 09:37:33;;;;;;;23.42;16.00;;;;;;;;;;5005984;28;20036;-58
2023/12/07 09:39:59;;;;;;;27.13;16.67;;;;;;;;;;5000215;28;20533;-58
2023/12/07 09:42:25;;;;;;;22.75;14.95;;;;;;;;;;5004104;28;20037;-59
2023/12/07 09:44:52;;;;;;;20.95;15.25;;;;;;;;;;5004278;28;20077;-59
2023/12/07 09:47:18;;;;;;;21.30;15.23;;;;;;;;;;5005149;28;20036;-59
2023/12/07 09:49:45;;;;;;;21.45;14.93;;;;;;;;;;5004934;28;20100;-59
2023/12/07 09:52:11;;;;;;;23.13;15.93;;;;;;;;;;5003187;28;20112;-59
2023/12/07 09:54:41;;;;;;;22.27;15.82;;;;;;;;;;5004413;28;20021;-59
2023/12/07 09:57:09;;;;;;;19.48;14.25;;;;;;;;;;5003593;28;20037;-59
2023/12/07 09:59:36;;;;;;;19.77;14.18;;;;;;;;;;5004785;28;21040;-59
2023/12/07 10:02:02;;;;;;;18.23;13.65;;;;;;;;;;5003401;28;20026;-59
2023/12/07 10:04:28;;;;;;;19.35;13.77;;;;;;;;;;5005095;28;20040;-59
2023/12/07 10:06:54;;;;;;;22.55;14.55;;;;;;;;;;5004766;28;20044;-59
2023/12/07 10:09:24;;;;;;;18.55;14.63;;;;;;;;;;5003243;28;20477;-59
2023/12/07 10:11:50;;;;;;;20.90;13.55;;;;;;;;;;5003434;28;20676;-59
2023/12/07 10:14:16;;;;;;;18.80;13.27;;;;;;;;;;5005549;28;20123;-59
2023/12/07 10:16:55;;;;;;;18.05;13.32;;;;;;;;;;5004658;28;20098;-59
2023/12/07 10:19:21;;;;;;;17.58;12.63;;;;;;;;;;5003485;28;20033;-59
2023/12/07 10:21:49;;;;;;;16.73;12.43;;;;;;;;;;5003892;28;20044;-59
2023/12/07 10:24:16;;;;;;;16.88;12.13;;;;;;;;;;5004379;28;22073;-59
2023/12/07 10:26:43;;;;;;;16.70;12.50;;;;;;;;;;5002272;28;20080;-59
2023/12/07 10:29:10;;;;;;;16.65;11.32;;;;;;;;;;5002371;28;20029;-59
2023/12/07 10:31:37;;;;;;;17.83;12.65;;;;;;;;;;5004254;28;20152;-59
2023/12/07 10:34:04;;;;;;;16.42;11.88;;;;;;;;;;5004233;28;20053;-59
2023/12/07 10:36:30;;;;;;;16.58;11.93;;;;;;;;;;5002658;28;20039;-59
2023/12/07 10:38:56;;;;;;;20.83;12.25;;;;;;;;;;5002693;28;20033;-59
2023/12/07 10:41:23;;;;;;;18.80;12.02;;;;;;;;;;4999823;28;20029;-59
2023/12/07 10:44:00;;;;;;;16.05;11.95;;;;;;;;;;5001801;28;20033;-59
2023/12/07 10:46:27;;;;;;;19.00;12.90;;;;;;;;;;5001448;28;20029;-59
2023/12/07 10:49:00;;;;;;;17.70;11.43;;;;;;;;;;5002245;28;20034;-59
2023/12/07 10:51:27;;;;;;;15.57;11.23;;;;;;;;;;5001643;28;20112;-59
2023/12/07 10:53:53;;;;;;;19.05;11.93;;;;;;;;;;5001961;28;20160;-59
2023/12/07 10:56:26;;;;;;;17.65;10.95;;;;;;;;;;5000670;28;20044;-59
2023/12/07 10:58:53;;;;;;;24.20;11.80;;;;;;;;;;5002575;28;20025;-59
2023/12/07 11:01:20;;;;;;;18.13;11.70;;;;;;;;;;5002101;28;20049;-59
2023/12/07 11:03:46;;;;;;;17.95;11.13;;;;;;;;;;5002144;28;20028;-59
2023/12/07 11:06:13;;;;;;;17.08;11.00;;;;;;;;;;5003041;28;20064;-59
2023/12/07 11:08:39;;;;;;;16.15;10.82;;;;;;;;;;5002269;28;20164;-59
2023/12/07 11:11:24;;;;;;;25.25;11.35;;;;;;;;;;5001725;28;21036;-59
2023/12/07 11:14:01;;;;;;;15.07;10.60;;;;;;;;;;5000952;28;20041;-59
2023/12/07 11:16:31;;;;;;;20.27;12.52;;;;;;;;;;5001118;28;20040;-59
2023/12/07 11:18:58;;;;;;;19.95;12.43;;;;;;;;;;4999995;28;20029;-59
2023/12/07 11:21:24;;;;;;;18.75;12.70;;;;;;;;;;5000425;28;20535;-59
2023/12/07 11:23:50;;;;;;;17.27;11.70;;;;;;;;;;5000862;28;20026;-59
2023/12/07 11:26:19;;;;;;;16.70;11.38;;;;;;;;;;5000179;28;20029;-59
2023/12/07 11:28:46;;;;;;;16.52;11.18;;;;;;;;;;4997468;28;20051;-59
2023/12/07 11:31:12;;;;;;;19.40;12.95;;;;;;;;;;4999813;28;20064;-59
2023/12/07 11:33:39;;;;;;;17.38;12.02;;;;;;;;;;4999219;28;20044;-59
2023/12/07 11:36:06;;;;;;;17.42;13.07;;;;;;;;;;5001804;28;21925;-59
2023/12/07 11:38:32;;;;;;;17.98;12.85;;;;;;;;;;4999514;28;20109;-59
2023/12/07 11:40:58;;;;;;;19.67;13.35;;;;;;;;;;5000465;28;20056;-59
2023/12/07 11:43:35;;;;;;;19.55;12.98;;;;;;;;;;4999972;28;20095;-59
2023/12/07 11:46:01;;;;;;;17.88;12.82;;;;;;;;;;5001421;28;20044;-59
2023/12/07 11:48:27;;;;;;;22.10;14.10;;;;;;;;;;5002698;28;20036;-59
2023/12/07 11:50:56;;;;;;;20.65;13.88;;;;;;;;;;5008425;28;20029;-59
2023/12/07 11:53:24;;;;;;;19.60;13.73;;;;;;;;;;5009218;28;20124;-59
2023/12/07 11:55:50;;;;;;;19.50;12.90;;;;;;;;;;5009844;28;20033;-59
2023/12/07 11:58:16;;;;;;;22.50;13.32;;;;;;;;;;5006105;28;20040;-59
2023/12/07 12:00:42;;;;;;;24.98;13.85;;;;;;;;;;5004837;28;20082;-59
2023/12/07 12:03:08;;;;;;;18.50;12.70;;;;;;;;;;5000833;28;20641;-59
2023/12/07 12:05:34;;;;;;;21.42;13.63;;;;;;;;;;5002846;28;21907;-59
2023/12/07 12:08:00;;;;;;;21.52;13.93;;;;;;;;;;5005634;28;20487;-58
2023/12/07 12:10:26;;;;;;;25.75;14.18;;;;;;;;;;4998704;28;22286;-59
2023/12/07 12:12:53;;;;;;;23.25;14.55;;;;;;;;;;5003022;28;20045;-59
2023/12/07 12:15:20;;;;;;;21.35;14.60;;;;;;;;;;5004978;28;20040;-59
2023/12/07 12:17:46;;;;;;;17.08;13.18;;;;;;;;;;5001476;28;20035;-59
2023/12/07 12:20:17;;;;;;;18.88;12.82;;;;;;;;;;5002425;28;20107;-59
2023/12/07 12:22:43;;;;;;;17.27;12.43;;;;;;;;;;5004557;28;20112;-59
2023/12/07 12:25:10;;;;;;;18.52;11.95;;;;;;;;;;5000885;28;20134;-59
2023/12/07 12:27:36;;;;;;;17.55;11.98;;;;;;;;;;5003870;28;20488;-59
2023/12/07 12:30:03;;;;;;;22.65;14.45;;;;;;;;;;5002283;28;20037;-59
2023/12/07 12:32:33;;;;;;;27.05;14.70;;;;;;;;;;5004973;28;20150;-59
2023/12/07 12:34:59;;;;;;;23.42;15.00;;;;;;;;;;5004574;28;20037;-59
2023/12/07 12:37:26;;;;;;;29.20;14.73;;;;;;;;;;5001669;28;20123;-59
2023/12/07 12:39:52;;;;;;;26.70;15.85;;;;;;;;;;5003558;28;20156;-59
2023/12/07 12:42:18;;;;;;;26.60;17.30;;;;;;;;;;5003483;28;20033;-59
2023/12/07 12:44:44;;;;;;;29.30;16.85;;;;;;;;;;5003800;28;20116;-59
2023/12/07 12:47:10;;;;;;;26.33;16.65;;;;;;;;;;5006685;28;20458;-59
2023/12/07 12:49:40;;;;;;;24.25;15.35;;;;;;;;;;5008307;28;20033;-59
2023/12/07 12:52:10;;;;;;;25.02;16.13;;;;;;;;;;5007613;28;20036;-59
2023/12/07 12:54:36;;;;;;;29.55;16.17;;;;;;;;;;5004628;28;20093;-58
2023/12/07 12:57:02;;;;;;;28.50;15.05;;;;;;;;;;5006471;28;20033;-59
2023/12/07 12:59:28;;;;;;;23.75;13.90;;;;;;;;;;5007813;28;20116;-59
2023/12/07 13:01:56;;;;;;;21.95;12.98;;;;;;;;;;5008338;28;20024;-59
2023/12/07 13:04:22;;;;;;;24.17;14.85;;;;;;;;;;5009046;28;20588;-59
2023/12/07 13:06:48;;;;;;;24.67;14.55;;;;;;;;;;5003639;28;20480;-59
2023/12/07 13:09:16;;;;;;;21.13;14.55;;;;;;;;;;5006556;28;21804;-59
2023/12/07 13:11:42;;;;;;;24.02;15.00;;;;;;;;;;5002973;28;20040;-59
2023/12/07 13:14:08;;;;;;;29.33;13.45;;;;;;;;;;5009035;28;20040;-59
2023/12/07 13:16:34;;;;;;;27.70;13.52;;;;;;;;;;5009942;28;20037;-59
2023/12/07 13:19:00;;;;;;;26.55;13.70;;;;;;;;;;5008349;28;20034;-58
2023/12/07 13:21:26;;;;;;;23.05;12.35;;;;;;;;;;5003019;28;20061;-59
2023/12/07 13:23:52;;;;;;;22.15;14.02;;;;;;;;;;5002456;28;20057;-59
2023/12/07 13:26:20;;;;;;;24.05;11.90;;;;;;;;;;5004279;28;20056;-59
2023/12/07 13:28:46;;;;;;;19.92;12.23;;;;;;;;;;5004079;28;20488;-59
2023/12/07 13:31:12;;;;;;;20.02;12.60;;;;;;;;;;5007054;28;20477;-59
2023/12/07 13:33:38;;;;;;;22.67;11.80;;;;;;;;;;5011618;28;21974;-59
2023/12/07 13:36:04;;;;;;;22.27;12.95;;;;;;;;;;5012521;28;20049;-59
2023/12/07 13:38:31;;;;;;;20.65;13.25;;;;;;;;;;5012333;28;20045;-58
2023/12/07 13:40:57;;;;;;;23.33;14.82;;;;;;;;;;5012264;28;20164;-59
2023/12/07 13:43:24;;;;;;;18.90;13.35;;;;;;;;;;5012231;28;20139;-58
2023/12/07 13:45:50;;;;;;;23.55;14.70;;;;;;;;;;5012072;28;20049;-59
2023/12/07 13:48:16;;;;;;;23.92;13.95;;;;;;;;;;5012413;28;20025;-60
2023/12/07 13:50:43;;;;;;;20.95;13.93;;;;;;;;;;5012096;28;20033;-58
2023/12/07 13:53:10;;;;;;;25.33;14.40;;;;;;;;;;5012378;28;20040;-58
2023/12/07 13:55:37;;;;;;;23.35;15.40;;;;;;;;;;5011976;28;20056;-58
2023/12/07 13:58:03;;;;;;;25.88;14.20;;;;;;;;;;5012345;28;20823;-58
2023/12/07 14:00:29;;;;;;;26.33;15.07;;;;;;;;;;5012806;28;20568;-58
2023/12/07 14:02:55;;;;;;;27.90;15.07;;;;;;;;;;5011926;28;20381;-58
2023/12/07 14:05:22;;;;;;;23.63;15.07;;;;;;;;;;5012434;28;21266;-58
2023/12/07 14:07:49;;;;;;;26.23;15.57;;;;;;;;;;5012236;28;20412;-58
2023/12/07 14:10:15;;;;;;;28.38;16.52;;;;;;;;;;5011725;28;20066;-58
2023/12/07 14:12:41;;;;;;;30.90;16.42;;;;;;;;;;5011665;28;20045;-58
2023/12/07 14:15:07;;;;;;;31.65;17.15;;;;;;;;;;5012678;28;21858;-58
2023/12/07 14:17:37;;;;;;;28.38;16.10;;;;;;;;;;5011847;28;20037;-58
2023/12/07 14:20:09;;;;;;;25.05;15.57;;;;;;;;;;5010725;28;20038;-58
2023/12/07 14:22:35;;;;;;;25.60;16.17;;;;;;;;;;5010763;28;20071;-58